sensor_id;sensor_type;location;lat;lon;timestamp;noise_LAeq;noise_LA_min;noise_LA_max;noise_LA01;noise_LA95
59284;Laerm;45056;47.602;9.886;2023-07-31T00:01:13;43.97;34.69;56.50;;
59284;Laerm;45056;47.602;9.886;2023-07-31T00:03:41;38.31;33.90;42.59;;
59284;Laerm;45056;47.602;9.886;2023-07-31T00:06:09;38.17;34.31;42.93;;
59284;Laerm;45056;47.602;9.886;2023-07-31T00:08:37;38.20;33.90;42.09;;
59284;Laerm;45056;47.602;9.886;2023-07-31T00:11:06;39.06;34.31;55.53;;
59284;Laerm;45056;47.602;9.886;2023-07-31T00:13:34;38.15;34.69;40.71;;
59284;Laerm;45056;47.602;9.886;2023-07-31T00:16:04;42.09;35.04;56.45;;
59284;Laerm;45056;47.602;9.886;2023-07-31T00:18:32;38.19;33.44;42.22;;
59284;Laerm;45056;47.602;9.886;2023-07-31T00:21:00;38.49;33.90;42.47;;
59284;Laerm;45056;47.602;9.886;2023-07-31T00:23:28;39.14;35.04;42.65;;
59284;Laerm;45056;47.602;9.886;2023-07-31T00:25:56;39.41;35.04;45.17;;
59284;Laerm;45056;47.602;9.886;2023-07-31T00:28:25;41.19;35.04;52.47;;
59284;Laerm;45056;47.602;9.886;2023-07-31T00:30:54;41.00;34.69;57.22;;
59284;Laerm;45056;47.602;9.886;2023-07-31T00:33:23;39.93;33.90;51.54;;
59284;Laerm;45056;47.602;9.886;2023-07-31T00:35:51;38.44;34.31;41.14;;
59284;Laerm;45056;47.602;9.886;2023-07-31T00:38:20;38.31;35.04;41.96;;
59284;Laerm;45056;47.602;9.886;2023-07-31T00:40:48;38.06;33.90;40.98;;
59284;Laerm;45056;47.602;9.886;2023-07-31T00:43:16;38.36;34.31;41.19;;
59284;Laerm;45056;47.602;9.886;2023-07-31T00:45:45;40.81;33.90;55.16;;
59284;Laerm;45056;47.602;9.886;2023-07-31T00:48:13;39.84;33.44;50.28;;
59284;Laerm;45056;47.602;9.886;2023-07-31T00:50:43;38.37;34.69;43.72;;
59284;Laerm;45056;47.602;9.886;2023-07-31T00:53:12;39.17;34.69;47.08;;
59284;Laerm;45056;47.602;9.886;2023-07-31T00:55:42;39.88;34.69;51.30;;
59284;Laerm;45056;47.602;9.886;2023-07-31T00:58:10;38.04;34.31;40.80;;
59284;Laerm;45056;47.602;9.886;2023-07-31T01:00:40;43.44;35.36;55.07;;
59284;Laerm;45056;47.602;9.886;2023-07-31T01:03:08;39.47;34.31;43.29;;
59284;Laerm;45056;47.602;9.886;2023-07-31T01:05:49;38.22;33.90;42.00;;
59284;Laerm;45056;47.602;9.886;2023-07-31T01:08:33;40.70;34.69;53.11;;
59284;Laerm;45056;47.602;9.886;2023-07-31T01:11:16;40.26;34.31;49.82;;
59284;Laerm;45056;47.602;9.886;2023-07-31T01:13:46;38.44;34.31;43.77;;
59284;Laerm;45056;47.602;9.886;2023-07-31T01:16:15;40.52;34.69;54.53;;
59284;Laerm;45056;47.602;9.886;2023-07-31T01:18:43;41.16;35.04;54.98;;
59284;Laerm;45056;47.602;9.886;2023-07-31T01:21:34;40.52;35.66;50.47;;
59284;Laerm;45056;47.602;9.886;2023-07-31T01:24:25;39.69;34.69;46.30;;
59284;Laerm;45056;47.602;9.886;2023-07-31T01:27:10;38.38;34.69;41.61;;
59284;Laerm;45056;47.602;9.886;2023-07-31T01:29:50;38.16;34.31;41.30;;
59284;Laerm;45056;47.602;9.886;2023-07-31T01:32:23;40.27;34.31;55.50;;
59284;Laerm;45056;47.602;9.886;2023-07-31T01:34:55;43.15;34.69;56.80;;
59284;Laerm;45056;47.602;9.886;2023-07-31T01:37:28;39.63;33.90;52.53;;
59284;Laerm;45056;47.602;9.886;2023-07-31T01:39:57;40.03;34.69;53.69;;
59284;Laerm;45056;47.602;9.886;2023-07-31T01:42:27;38.22;33.44;41.46;;
59284;Laerm;45056;47.602;9.886;2023-07-31T01:44:55;38.48;34.69;46.50;;
59284;Laerm;45056;47.602;9.886;2023-07-31T01:47:23;41.83;35.04;57.14;;
59284;Laerm;45056;47.602;9.886;2023-07-31T01:49:51;38.16;34.69;40.62;;
59284;Laerm;45056;47.602;9.886;2023-07-31T01:52:20;38.65;35.04;42.03;;
59284;Laerm;45056;47.602;9.886;2023-07-31T01:54:56;38.05;33.90;40.53;;
59284;Laerm;45056;47.602;9.886;2023-07-31T01:57:39;46.02;35.36;73.31;;
59284;Laerm;45056;47.602;9.886;2023-07-31T02:00:15;43.47;34.69;58.57;;
59284;Laerm;45056;47.602;9.886;2023-07-31T02:02:53;40.40;33.97;54.19;;
59284;Laerm;45056;47.602;9.886;2023-07-31T02:05:51;38.43;34.69;41.46;;
59284;Laerm;45056;47.602;9.886;2023-07-31T02:09:17;39.71;34.31;51.28;;
59284;Laerm;45056;47.602;9.886;2023-07-31T02:12:19;41.01;35.36;56.93;;
59284;Laerm;45056;47.602;9.886;2023-07-31T02:15:14;40.94;35.36;54.92;;
59284;Laerm;45056;47.602;9.886;2023-07-31T02:18:42;38.84;33.90;43.29;;
59284;Laerm;45056;47.602;9.886;2023-07-31T02:21:10;40.91;34.69;55.08;;
59284;Laerm;45056;47.602;9.886;2023-07-31T02:24:25;46.50;34.31;64.87;;
59284;Laerm;45056;47.602;9.886;2023-07-31T02:27:32;42.09;34.31;60.47;;
59284;Laerm;45056;47.602;9.886;2023-07-31T02:31:15;40.51;34.31;55.99;;
59284;Laerm;45056;47.602;9.886;2023-07-31T02:34:31;39.03;35.31;43.72;;
59284;Laerm;45056;47.602;9.886;2023-07-31T02:37:07;38.38;34.31;41.61;;
59284;Laerm;45056;47.602;9.886;2023-07-31T02:48:16;41.58;35.01;54.12;;
59284;Laerm;45056;47.602;9.886;2023-07-31T02:50:45;42.41;35.94;54.93;;
59284;Laerm;45056;47.602;9.886;2023-07-31T02:53:13;46.04;35.94;59.66;;
59284;Laerm;45056;47.602;9.886;2023-07-31T02:55:41;42.31;35.66;53.84;;
59284;Laerm;45056;47.602;9.886;2023-07-31T02:58:09;41.94;36.20;55.65;;
59284;Laerm;45056;47.602;9.886;2023-07-31T03:00:42;46.85;37.32;58.35;;
59284;Laerm;45056;47.602;9.886;2023-07-31T03:03:11;45.32;35.94;61.42;;
59284;Laerm;45056;47.602;9.886;2023-07-31T03:05:40;48.00;35.36;67.35;;
59284;Laerm;45056;47.602;9.886;2023-07-31T03:08:08;42.08;36.91;55.45;;
59284;Laerm;45056;47.602;9.886;2023-07-31T03:10:36;41.32;36.45;53.78;;
59284;Laerm;45056;47.602;9.886;2023-07-31T03:13:05;42.09;37.32;54.42;;
59284;Laerm;45056;47.602;9.886;2023-07-31T03:15:33;44.53;37.88;55.15;;
59284;Laerm;45056;47.602;9.886;2023-07-31T03:18:01;47.22;37.12;63.76;;
59284;Laerm;45056;47.602;9.886;2023-07-31T03:20:29;42.42;36.69;53.10;;
59284;Laerm;45056;47.602;9.886;2023-07-31T03:22:58;44.43;36.69;58.05;;
59284;Laerm;45056;47.602;9.886;2023-07-31T03:25:26;42.26;36.20;53.43;;
59284;Laerm;45056;47.602;9.886;2023-07-31T03:27:54;46.67;37.70;61.04;;
59284;Laerm;45056;47.602;9.886;2023-07-31T03:30:22;43.02;37.12;56.03;;
59284;Laerm;45056;47.602;9.886;2023-07-31T03:32:50;45.54;38.05;59.40;;
59284;Laerm;45056;47.602;9.886;2023-07-31T03:35:18;46.82;37.88;65.41;;
59284;Laerm;45056;47.602;9.886;2023-07-31T03:37:46;41.62;36.91;52.59;;
59284;Laerm;45056;47.602;9.886;2023-07-31T03:40:16;43.08;37.32;53.63;;
59284;Laerm;45056;47.602;9.886;2023-07-31T03:42:44;44.54;37.70;55.49;;
59284;Laerm;45056;47.602;9.886;2023-07-31T03:45:12;45.66;38.52;56.97;;
59284;Laerm;45056;47.602;9.886;2023-07-31T03:47:40;44.83;38.21;55.14;;
59284;Laerm;45056;47.602;9.886;2023-07-31T03:50:09;42.79;39.08;52.21;;
59284;Laerm;45056;47.602;9.886;2023-07-31T03:52:37;45.32;39.81;58.34;;
59284;Laerm;45056;47.602;9.886;2023-07-31T03:55:05;48.21;38.37;65.24;;
59284;Laerm;45056;47.602;9.886;2023-07-31T03:57:35;45.42;38.05;59.40;;
59284;Laerm;45056;47.602;9.886;2023-07-31T04:00:04;46.11;37.70;56.94;;
59284;Laerm;45056;47.602;9.886;2023-07-31T04:02:32;49.04;39.58;60.38;;
59284;Laerm;45056;47.602;9.886;2023-07-31T04:05:01;54.78;36.20;69.21;;
59284;Laerm;45056;47.602;9.886;2023-07-31T04:07:29;43.53;36.45;55.39;;
59284;Laerm;45056;47.602;9.886;2023-07-31T04:09:57;43.96;39.08;52.66;;
59284;Laerm;45056;47.602;9.886;2023-07-31T04:12:25;47.55;38.32;61.81;;
59284;Laerm;45056;47.602;9.886;2023-07-31T04:14:55;43.48;38.52;54.88;;
59284;Laerm;45056;47.602;9.886;2023-07-31T04:17:23;47.68;37.70;61.55;;
59284;Laerm;45056;47.602;9.886;2023-07-31T04:19:51;46.67;38.52;58.17;;
59284;Laerm;45056;47.602;9.886;2023-07-31T04:22:19;44.63;38.67;56.63;;
59284;Laerm;45056;47.602;9.886;2023-07-31T04:24:47;46.24;38.37;60.61;;
59284;Laerm;45056;47.602;9.886;2023-07-31T04:27:15;45.95;38.67;60.10;;
59284;Laerm;45056;47.602;9.886;2023-07-31T04:29:43;44.65;36.91;57.36;;
59284;Laerm;45056;47.602;9.886;2023-07-31T04:32:14;44.25;37.12;55.83;;
59284;Laerm;45056;47.602;9.886;2023-07-31T04:34:44;45.49;38.05;57.37;;
59284;Laerm;45056;47.602;9.886;2023-07-31T04:37:12;49.79;40.03;63.41;;
59284;Laerm;45056;47.602;9.886;2023-07-31T04:39:40;45.60;38.21;56.90;;
59284;Laerm;45056;47.602;9.886;2023-07-31T04:42:08;47.80;38.21;58.36;;
59284;Laerm;45056;47.602;9.886;2023-07-31T04:44:36;47.83;40.53;62.30;;
59284;Laerm;45056;47.602;9.886;2023-07-31T04:47:04;47.62;39.21;60.82;;
59284;Laerm;45056;47.602;9.886;2023-07-31T04:49:34;48.08;41.22;63.63;;
59284;Laerm;45056;47.602;9.886;2023-07-31T04:52:03;47.74;41.22;59.05;;
59284;Laerm;45056;47.602;9.886;2023-07-31T04:54:31;46.30;38.81;56.53;;
59284;Laerm;45056;47.602;9.886;2023-07-31T04:56:59;51.44;38.95;72.23;;
59284;Laerm;45056;47.602;9.886;2023-07-31T04:59:27;47.90;39.08;64.25;;
59284;Laerm;45056;47.602;9.886;2023-07-31T05:01:55;50.19;39.81;63.71;;
59284;Laerm;45056;47.602;9.886;2023-07-31T05:04:23;47.97;39.81;57.64;;
59284;Laerm;45056;47.602;9.886;2023-07-31T05:06:52;45.61;39.70;56.02;;
59284;Laerm;45056;47.602;9.886;2023-07-31T05:09:20;45.31;39.21;55.26;;
59284;Laerm;45056;47.602;9.886;2023-07-31T05:11:48;44.87;39.21;55.09;;
59284;Laerm;45056;47.602;9.886;2023-07-31T05:14:16;48.88;39.92;62.77;;
59284;Laerm;45056;47.602;9.886;2023-07-31T05:16:44;46.71;38.05;57.31;;
59284;Laerm;45056;47.602;9.886;2023-07-31T05:19:12;45.69;39.92;55.85;;
59284;Laerm;45056;47.602;9.886;2023-07-31T05:21:41;46.71;39.58;56.48;;
59284;Laerm;45056;47.602;9.886;2023-07-31T05:24:10;49.28;39.08;63.99;;
59284;Laerm;45056;47.602;9.886;2023-07-31T05:26:38;48.21;38.81;61.32;;
59284;Laerm;45056;47.602;9.886;2023-07-31T05:29:06;50.45;39.58;63.94;;
59284;Laerm;45056;47.602;9.886;2023-07-31T05:31:34;46.71;38.37;56.18;;
59284;Laerm;45056;47.602;9.886;2023-07-31T05:34:02;48.12;38.74;64.61;;
59284;Laerm;45056;47.602;9.886;2023-07-31T05:36:30;46.37;39.58;63.72;;
59284;Laerm;45056;47.602;9.886;2023-07-31T05:38:58;45.43;39.34;55.67;;
59284;Laerm;45056;47.602;9.886;2023-07-31T05:41:27;46.51;40.80;55.92;;
59284;Laerm;45056;47.602;9.886;2023-07-31T05:43:55;47.53;41.68;56.14;;
59284;Laerm;45056;47.602;9.886;2023-07-31T05:46:24;46.90;39.81;57.83;;
59284;Laerm;45056;47.602;9.886;2023-07-31T05:48:52;48.78;42.22;61.74;;
59284;Laerm;45056;47.602;9.886;2023-07-31T05:51:19;46.69;39.46;58.72;;
59284;Laerm;45056;47.602;9.886;2023-07-31T05:53:47;46.58;40.98;61.46;;
59284;Laerm;45056;47.602;9.886;2023-07-31T05:56:16;46.57;40.43;54.64;;
59284;Laerm;45056;47.602;9.886;2023-07-31T05:58:45;45.94;39.70;58.56;;
59284;Laerm;45056;47.602;9.886;2023-07-31T06:01:15;50.13;40.23;62.29;;
59284;Laerm;45056;47.602;9.886;2023-07-31T06:03:44;48.62;40.13;59.79;;
59284;Laerm;45056;47.602;9.886;2023-07-31T06:06:12;49.07;41.14;65.42;;
59284;Laerm;45056;47.602;9.886;2023-07-31T06:08:40;48.83;40.80;62.69;;
59284;Laerm;45056;47.602;9.886;2023-07-31T06:11:09;47.67;41.30;63.49;;
59284;Laerm;45056;47.602;9.886;2023-07-31T06:13:37;46.81;40.62;55.24;;
59284;Laerm;45056;47.602;9.886;2023-07-31T06:16:06;48.84;40.23;62.68;;
59284;Laerm;45056;47.602;9.886;2023-07-31T06:18:34;47.48;38.95;64.42;;
59284;Laerm;45056;47.602;9.886;2023-07-31T06:21:02;45.97;40.23;58.57;;
59284;Laerm;45056;47.602;9.886;2023-07-31T06:23:30;46.93;40.33;55.57;;
59284;Laerm;45056;47.602;9.886;2023-07-31T06:25:59;46.75;39.92;57.18;;
59284;Laerm;45056;47.602;9.886;2023-07-31T06:28:28;45.90;40.62;57.28;;
59284;Laerm;45056;47.602;9.886;2023-07-31T06:30:57;48.11;40.03;63.74;;
59284;Laerm;45056;47.602;9.886;2023-07-31T06:33:27;48.25;41.68;60.66;;
59284;Laerm;45056;47.602;9.886;2023-07-31T06:35:55;50.84;41.14;63.94;;
59284;Laerm;45056;47.602;9.886;2023-07-31T06:38:26;49.45;40.33;62.58;;
59284;Laerm;45056;47.602;9.886;2023-07-31T06:40:54;49.14;40.43;62.02;;
59284;Laerm;45056;47.602;9.886;2023-07-31T06:43:22;50.03;41.14;64.18;;
59284;Laerm;45056;47.602;9.886;2023-07-31T06:45:50;47.29;40.43;56.24;;
59284;Laerm;45056;47.602;9.886;2023-07-31T06:48:18;45.65;40.33;55.24;;
59284;Laerm;45056;47.602;9.886;2023-07-31T06:50:47;46.22;40.53;53.47;;
59284;Laerm;45056;47.602;9.886;2023-07-31T06:53:15;48.26;40.33;61.23;;
59284;Laerm;45056;47.602;9.886;2023-07-31T06:55:43;45.62;39.08;55.72;;
59284;Laerm;45056;47.602;9.886;2023-07-31T06:58:12;46.97;41.53;56.68;;
59284;Laerm;45056;47.602;9.886;2023-07-31T07:00:40;50.04;40.63;61.86;;
59284;Laerm;45056;47.602;9.886;2023-07-31T07:03:08;50.59;41.96;63.37;;
59284;Laerm;45056;47.602;9.886;2023-07-31T07:05:36;52.07;40.23;71.47;;
59284;Laerm;45056;47.602;9.886;2023-07-31T07:08:05;46.89;39.70;56.06;;
59284;Laerm;45056;47.602;9.886;2023-07-31T07:10:33;46.89;41.61;57.32;;
59284;Laerm;45056;47.602;9.886;2023-07-31T07:13:02;50.70;41.89;64.32;;
59284;Laerm;45056;47.602;9.886;2023-07-31T07:15:30;48.13;39.99;59.01;;
59284;Laerm;45056;47.602;9.886;2023-07-31T07:17:58;44.72;39.70;55.40;;
59284;Laerm;45056;47.602;9.886;2023-07-31T07:20:26;48.91;38.95;62.78;;
59284;Laerm;45056;47.602;9.886;2023-07-31T07:22:54;46.59;40.71;56.35;;
59284;Laerm;45056;47.602;9.886;2023-07-31T07:25:24;48.46;41.82;61.61;;
59284;Laerm;45056;47.602;9.886;2023-07-31T07:27:52;45.62;40.13;54.45;;
59284;Laerm;45056;47.602;9.886;2023-07-31T07:30:20;47.84;41.06;60.67;;
59284;Laerm;45056;47.602;9.886;2023-07-31T07:32:48;46.81;40.43;57.16;;
59284;Laerm;45056;47.602;9.886;2023-07-31T07:35:16;50.30;41.38;65.23;;
59284;Laerm;45056;47.602;9.886;2023-07-31T07:37:44;49.02;41.30;63.95;;
59284;Laerm;45056;47.602;9.886;2023-07-31T07:40:12;49.21;41.68;60.93;;
59284;Laerm;45056;47.602;9.886;2023-07-31T07:42:42;49.21;41.82;62.98;;
59284;Laerm;45056;47.602;9.886;2023-07-31T07:45:10;49.47;40.23;65.45;;
59284;Laerm;45056;47.602;9.886;2023-07-31T07:47:40;47.17;41.96;58.84;;
59284;Laerm;45056;47.602;9.886;2023-07-31T07:50:09;47.17;40.62;55.84;;
59284;Laerm;45056;47.602;9.886;2023-07-31T07:52:37;47.77;40.71;57.79;;
59284;Laerm;45056;47.602;9.886;2023-07-31T07:55:06;47.69;41.82;55.96;;
59284;Laerm;45056;47.602;9.886;2023-07-31T07:57:34;49.60;42.35;60.77;;
59284;Laerm;45056;47.602;9.886;2023-07-31T08:00:05;48.44;41.53;58.69;;
59284;Laerm;45056;47.602;9.886;2023-07-31T08:02:33;48.49;42.82;59.86;;
59284;Laerm;45056;47.602;9.886;2023-07-31T08:05:02;46.93;40.33;54.65;;
59284;Laerm;45056;47.602;9.886;2023-07-31T08:07:30;47.50;40.33;59.10;;
59284;Laerm;45056;47.602;9.886;2023-07-31T08:09:58;46.36;40.98;54.99;;
59284;Laerm;45056;47.602;9.886;2023-07-31T08:12:26;49.33;41.53;62.43;;
59284;Laerm;45056;47.602;9.886;2023-07-31T08:14:54;47.07;40.27;57.75;;
59284;Laerm;45056;47.602;9.886;2023-07-31T08:17:23;49.89;41.82;62.06;;
59284;Laerm;45056;47.602;9.886;2023-07-31T08:19:52;46.69;40.62;59.03;;
59284;Laerm;45056;47.602;9.886;2023-07-31T08:22:20;48.62;41.30;61.34;;
59284;Laerm;45056;47.602;9.886;2023-07-31T08:24:48;50.20;41.30;69.72;;
59284;Laerm;45056;47.602;9.886;2023-07-31T08:27:16;46.70;40.89;54.36;;
59284;Laerm;45056;47.602;9.886;2023-07-31T08:29:44;48.90;41.22;63.55;;
59284;Laerm;45056;47.602;9.886;2023-07-31T08:32:12;47.62;41.75;58.37;;
59284;Laerm;45056;47.602;9.886;2023-07-31T08:34:41;48.96;41.46;61.62;;
59284;Laerm;45056;47.602;9.886;2023-07-31T08:37:09;53.26;41.96;69.63;;
59284;Laerm;45056;47.602;9.886;2023-07-31T08:39:38;47.60;40.62;55.99;;
59284;Laerm;45056;47.602;9.886;2023-07-31T08:42:08;46.63;41.14;57.11;;
59284;Laerm;45056;47.602;9.886;2023-07-31T08:44:38;48.81;42.09;59.14;;
59284;Laerm;45056;47.602;9.886;2023-07-31T08:47:07;47.03;41.89;56.37;;
59284;Laerm;45056;47.602;9.886;2023-07-31T08:49:38;48.34;42.47;59.66;;
59284;Laerm;45056;47.602;9.886;2023-07-31T08:52:10;48.09;42.29;59.07;;
59284;Laerm;45056;47.602;9.886;2023-07-31T08:54:38;47.66;42.47;55.26;;
59284;Laerm;45056;47.602;9.886;2023-07-31T08:57:07;50.66;42.59;64.48;;
59284;Laerm;45056;47.602;9.886;2023-07-31T08:59:38;47.00;41.75;56.66;;
59284;Laerm;45056;47.602;9.886;2023-07-31T09:02:08;48.77;42.71;57.64;;
59284;Laerm;45056;47.602;9.886;2023-07-31T09:04:37;46.69;40.62;55.26;;
59284;Laerm;45056;47.602;9.886;2023-07-31T09:07:06;48.23;41.38;62.35;;
59284;Laerm;45056;47.602;9.886;2023-07-31T09:09:37;47.44;42.09;63.08;;
59284;Laerm;45056;47.602;9.886;2023-07-31T09:12:07;46.00;41.82;54.38;;
59284;Laerm;45056;47.602;9.886;2023-07-31T09:14:38;46.49;40.13;54.94;;
59284;Laerm;45056;47.602;9.886;2023-07-31T09:17:06;46.48;41.53;55.64;;
59284;Laerm;45056;47.602;9.886;2023-07-31T09:19:36;46.01;40.13;55.53;;
59284;Laerm;45056;47.602;9.886;2023-07-31T09:22:05;47.09;42.16;54.43;;
59284;Laerm;45056;47.602;9.886;2023-07-31T09:24:36;47.69;40.33;63.63;;
59284;Laerm;45056;47.602;9.886;2023-07-31T09:27:06;47.86;40.53;59.53;;
59284;Laerm;45056;47.602;9.886;2023-07-31T09:29:34;47.17;41.30;53.56;;
59284;Laerm;45056;47.602;9.886;2023-07-31T09:32:03;47.44;41.46;58.32;;
59284;Laerm;45056;47.602;9.886;2023-07-31T09:34:38;48.80;41.53;62.55;;
59284;Laerm;45056;47.602;9.886;2023-07-31T09:37:06;49.06;40.89;64.51;;
59284;Laerm;45056;47.602;9.886;2023-07-31T09:39:46;47.73;40.62;58.71;;
59284;Laerm;45056;47.602;9.886;2023-07-31T09:42:26;46.22;41.30;54.98;;
59284;Laerm;45056;47.602;9.886;2023-07-31T09:45:08;46.98;40.43;59.56;;
59284;Laerm;45056;47.602;9.886;2023-07-31T09:47:36;46.35;40.13;58.98;;
59284;Laerm;45056;47.602;9.886;2023-07-31T09:50:08;49.67;40.13;63.96;;
59284;Laerm;45056;47.602;9.886;2023-07-31T09:52:38;48.08;40.89;59.44;;
59284;Laerm;45056;47.602;9.886;2023-07-31T09:55:10;47.46;41.96;55.56;;
59284;Laerm;45056;47.602;9.886;2023-07-31T09:57:41;49.33;41.96;59.55;;
59284;Laerm;45056;47.602;9.886;2023-07-31T10:00:12;51.98;43.19;65.87;;
59284;Laerm;45056;47.602;9.886;2023-07-31T10:02:41;51.31;41.68;62.97;;
59284;Laerm;45056;47.602;9.886;2023-07-31T10:05:15;59.53;49.38;68.96;;
59284;Laerm;45056;47.602;9.886;2023-07-31T10:07:53;48.40;41.22;59.12;;
59284;Laerm;45056;47.602;9.886;2023-07-31T10:10:25;48.47;41.38;60.02;;
59284;Laerm;45056;47.602;9.886;2023-07-31T10:12:56;47.27;39.70;60.06;;
59284;Laerm;45056;47.602;9.886;2023-07-31T10:15:26;48.27;41.30;61.41;;
59284;Laerm;45056;47.602;9.886;2023-07-31T10:17:54;47.89;42.59;55.48;;
59284;Laerm;45056;47.602;9.886;2023-07-31T10:20:26;48.34;41.22;61.05;;
59284;Laerm;45056;47.602;9.886;2023-07-31T10:22:56;47.33;41.53;57.66;;
59284;Laerm;45056;47.602;9.886;2023-07-31T10:25:27;47.85;41.53;60.03;;
59284;Laerm;45056;47.602;9.886;2023-07-31T10:27:57;46.34;41.14;55.12;;
59284;Laerm;45056;47.602;9.886;2023-07-31T10:30:31;47.46;40.36;58.80;;
59284;Laerm;45056;47.602;9.886;2023-07-31T10:33:02;49.33;42.29;62.64;;
59284;Laerm;45056;47.602;9.886;2023-07-31T10:35:31;48.45;42.71;65.33;;
59284;Laerm;45056;47.602;9.886;2023-07-31T10:38:10;47.30;41.61;57.91;;
59284;Laerm;45056;47.602;9.886;2023-07-31T10:40:40;50.27;41.06;64.75;;
59284;Laerm;45056;47.602;9.886;2023-07-31T10:43:09;47.45;41.53;56.44;;
59284;Laerm;45056;47.602;9.886;2023-07-31T10:45:42;47.82;41.30;59.02;;
59284;Laerm;45056;47.602;9.886;2023-07-31T10:48:14;47.43;41.22;57.97;;
59284;Laerm;45056;47.602;9.886;2023-07-31T10:50:49;47.82;40.71;60.48;;
59284;Laerm;45056;47.602;9.886;2023-07-31T10:53:25;47.96;39.58;58.85;;
59284;Laerm;45056;47.602;9.886;2023-07-31T10:55:59;46.97;41.06;56.72;;
59284;Laerm;45056;47.602;9.886;2023-07-31T10:58:27;47.68;40.53;56.82;;
59284;Laerm;45056;47.602;9.886;2023-07-31T11:00:57;51.36;41.46;63.56;;
59284;Laerm;45056;47.602;9.886;2023-07-31T11:03:41;46.98;39.92;57.35;;
59284;Laerm;45056;47.602;9.886;2023-07-31T11:06:09;50.34;40.43;65.13;;
59284;Laerm;45056;47.602;9.886;2023-07-31T11:08:43;46.22;39.92;56.91;;
59284;Laerm;45056;47.602;9.886;2023-07-31T11:11:16;46.88;39.46;56.82;;
59284;Laerm;45056;47.602;9.886;2023-07-31T11:13:47;49.04;40.88;61.81;;
59284;Laerm;45056;47.602;9.886;2023-07-31T11:16:18;49.66;42.71;61.42;;
59284;Laerm;45056;47.602;9.886;2023-07-31T11:18:48;49.49;41.14;64.74;;
59284;Laerm;45056;47.602;9.886;2023-07-31T11:21:20;48.90;41.88;62.26;;
59284;Laerm;45056;47.602;9.886;2023-07-31T11:23:52;49.47;42.16;62.62;;
59284;Laerm;45056;47.602;9.886;2023-07-31T11:26:24;45.07;39.81;54.67;;
59284;Laerm;45056;47.602;9.886;2023-07-31T11:28:52;46.24;40.80;55.70;;
59284;Laerm;45056;47.602;9.886;2023-07-31T11:31:20;48.00;40.80;59.91;;
59284;Laerm;45056;47.602;9.886;2023-07-31T11:33:49;46.59;40.43;56.50;;
59284;Laerm;45056;47.602;9.886;2023-07-31T11:36:19;49.22;41.61;63.52;;
59284;Laerm;45056;47.602;9.886;2023-07-31T11:38:48;48.54;41.30;60.54;;
59284;Laerm;45056;47.602;9.886;2023-07-31T11:41:16;50.76;41.30;62.77;;
59284;Laerm;45056;47.602;9.886;2023-07-31T11:43:46;48.54;41.22;61.48;;
59284;Laerm;45056;47.602;9.886;2023-07-31T11:46:15;53.68;42.09;70.11;;
59284;Laerm;45056;47.602;9.886;2023-07-31T11:48:44;48.77;42.59;62.43;;
59284;Laerm;45056;47.602;9.886;2023-07-31T11:51:15;51.35;42.53;65.58;;
59284;Laerm;45056;47.602;9.886;2023-07-31T11:53:47;47.27;40.23;57.10;;
59284;Laerm;45056;47.602;9.886;2023-07-31T11:56:25;47.63;39.92;62.89;;
59284;Laerm;45056;47.602;9.886;2023-07-31T11:58:59;47.03;40.80;54.70;;
59284;Laerm;45056;47.602;9.886;2023-07-31T12:01:31;49.67;40.71;60.02;;
59284;Laerm;45056;47.602;9.886;2023-07-31T12:04:00;52.59;39.81;70.07;;
59284;Laerm;45056;47.602;9.886;2023-07-31T12:07:02;48.03;41.06;61.97;;
59284;Laerm;45056;47.602;9.886;2023-07-31T12:10:07;49.26;41.53;58.06;;
59284;Laerm;45056;47.602;9.886;2023-07-31T12:13:19;50.94;40.89;62.93;;
59284;Laerm;45056;47.602;9.886;2023-07-31T12:16:26;48.56;41.53;61.20;;
59284;Laerm;45056;47.602;9.886;2023-07-31T12:19:46;50.79;42.41;61.00;;
59284;Laerm;45056;47.602;9.886;2023-07-31T12:22:52;49.98;42.35;62.54;;
59284;Laerm;45056;47.602;9.886;2023-07-31T12:25:47;50.31;41.75;62.10;;
59284;Laerm;45056;47.602;9.886;2023-07-31T12:28:41;49.76;42.71;60.39;;
59284;Laerm;45056;47.602;9.886;2023-07-31T12:31:17;49.12;42.16;60.30;;
59284;Laerm;45056;47.602;9.886;2023-07-31T12:33:51;49.97;42.16;65.33;;
59284;Laerm;45056;47.602;9.886;2023-07-31T12:36:23;48.65;42.74;69.30;;
59284;Laerm;45056;47.602;9.886;2023-07-31T12:39:12;49.57;42.65;60.29;;
59284;Laerm;45056;47.602;9.886;2023-07-31T12:41:43;49.17;42.47;61.53;;
59284;Laerm;45056;47.602;9.886;2023-07-31T12:44:11;51.11;42.82;65.54;;
59284;Laerm;45056;47.602;9.886;2023-07-31T12:46:41;48.75;42.64;58.28;;
59284;Laerm;45056;47.602;9.886;2023-07-31T12:49:09;48.16;43.54;58.90;;
59284;Laerm;45056;47.602;9.886;2023-07-31T12:51:37;48.85;42.65;57.09;;
59284;Laerm;45056;47.602;9.886;2023-07-31T12:54:06;51.21;42.71;66.11;;
59284;Laerm;45056;47.602;9.886;2023-07-31T12:56:34;47.31;43.63;57.45;;
59284;Laerm;45056;47.602;9.886;2023-07-31T12:59:02;52.24;43.68;61.49;;
59284;Laerm;45056;47.602;9.886;2023-07-31T13:01:34;52.05;46.23;61.89;;
59284;Laerm;45056;47.602;9.886;2023-07-31T13:04:04;50.74;43.58;61.65;;
59284;Laerm;45056;47.602;9.886;2023-07-31T13:06:32;49.76;43.24;65.52;;
59284;Laerm;45056;47.602;9.886;2023-07-31T13:09:00;51.52;43.19;59.94;;
59284;Laerm;45056;47.602;9.886;2023-07-31T13:11:29;53.29;43.94;67.08;;
59284;Laerm;45056;47.602;9.886;2023-07-31T13:13:57;50.13;43.24;61.63;;
59284;Laerm;45056;47.602;9.886;2023-07-31T13:16:26;48.94;43.49;60.21;;
59284;Laerm;45056;47.602;9.886;2023-07-31T13:18:54;53.77;44.62;66.69;;
59284;Laerm;45056;47.602;9.886;2023-07-31T13:21:24;49.68;44.27;60.05;;
59284;Laerm;45056;47.602;9.886;2023-07-31T13:23:52;52.04;43.39;63.04;;
59284;Laerm;45056;47.602;9.886;2023-07-31T13:26:20;48.45;43.58;58.06;;
59284;Laerm;45056;47.602;9.886;2023-07-31T13:28:48;51.76;42.93;75.76;;
59284;Laerm;45056;47.602;9.886;2023-07-31T13:31:17;50.06;43.19;58.43;;
59284;Laerm;45056;47.602;9.886;2023-07-31T13:33:45;49.10;43.63;64.47;;
59284;Laerm;45056;47.602;9.886;2023-07-31T13:36:13;48.45;43.77;57.62;;
59284;Laerm;45056;47.602;9.886;2023-07-31T13:38:42;48.00;43.99;55.33;;
59284;Laerm;45056;47.602;9.886;2023-07-31T13:41:10;50.57;41.22;66.47;;
59284;Laerm;45056;47.602;9.886;2023-07-31T13:43:38;47.13;43.09;54.09;;
59284;Laerm;45056;47.602;9.886;2023-07-31T13:46:10;49.38;42.35;61.38;;
59284;Laerm;45056;47.602;9.886;2023-07-31T13:48:40;47.49;42.09;56.00;;
59284;Laerm;45056;47.602;9.886;2023-07-31T13:51:09;53.35;43.99;70.76;;
59284;Laerm;45056;47.602;9.886;2023-07-31T13:53:37;48.33;41.22;60.84;;
59284;Laerm;45056;47.602;9.886;2023-07-31T13:56:12;50.77;42.93;63.66;;
59284;Laerm;45056;47.602;9.886;2023-07-31T13:58:40;50.45;43.39;65.49;;
59284;Laerm;45056;47.602;9.886;2023-07-31T14:01:11;50.84;43.44;66.53;;
59284;Laerm;45056;47.602;9.886;2023-07-31T14:03:44;49.14;43.14;61.35;;
59284;Laerm;45056;47.602;9.886;2023-07-31T14:06:12;48.79;42.03;57.83;;
59284;Laerm;45056;47.602;9.886;2023-07-31T14:08:43;46.78;41.61;53.98;;
59284;Laerm;45056;47.602;9.886;2023-07-31T14:11:15;48.56;42.41;56.82;;
59284;Laerm;45056;47.602;9.886;2023-07-31T14:13:49;47.83;42.65;59.32;;
59284;Laerm;45056;47.602;9.886;2023-07-31T14:16:17;49.05;42.09;59.12;;
59284;Laerm;45056;47.602;9.886;2023-07-31T14:18:46;47.94;42.35;57.91;;